Time;durP1;ratioP1;P1;durP2;ratioP2;P2;SDS_P1;SDS_P2;PMS_P1;PMS_P2;Temp;Humidity;BMP_temperature;BMP_pressure;BME280_temperature;BME280_humidity;BME280_pressure;Samples;Min_cycle;Max_cycle;Signal;HPM_P1;HPM_P2
2022/10/08 00:01:35;;;;;;;16.42;7.65;;;7.20;99.90;;;7.28;100.00;100004.53;5025513;27;124951;-73
2022/10/08 00:04:06;;;;;;;14.20;8.15;;;7.10;99.90;;;7.27;100.00;100006.41;5057603;27;131139;-73
2022/10/08 00:06:35;;;;;;;15.45;7.82;;;7.10;99.90;;;7.27;100.00;100008.31;5060693;27;129439;-74
2022/10/08 00:09:07;;;;;;;18.98;8.43;;;7.10;99.90;;;7.27;100.00;100003.72;5037823;27;125520;-74
2022/10/08 00:11:38;;;;;;;13.40;7.95;;;7.10;99.90;;;7.26;100.00;100001.28;5039047;27;125410;-75
2022/10/08 00:14:09;;;;;;;13.85;7.50;;;7.20;99.90;;;7.25;100.00;100002.41;5037288;27;129985;-75
2022/10/08 00:16:40;;;;;;;17.33;8.57;;;7.10;99.90;;;7.24;100.00;100003.47;5036999;27;129911;-75
2022/10/08 00:19:14;;;;;;;16.00;7.72;;;7.10;99.90;;;7.22;100.00;99997.56;5037133;27;125907;-73
2022/10/08 00:21:45;;;;;;;13.52;6.85;;;7.00;99.90;;;7.22;100.00;99990.25;5037376;27;126329;-74
2022/10/08 00:24:16;;;;;;;13.68;6.85;;;7.00;99.90;;;7.18;100.00;99995.41;5037039;27;130181;-74
2022/10/08 00:26:45;;;;;;;13.77;7.82;;;7.00;99.90;;;7.15;100.00;99984.34;5036801;27;129120;-74
2022/10/08 00:29:18;;;;;;;12.18;7.13;;;7.10;99.90;;;7.16;100.00;99986.75;5036172;27;125647;-75
2022/10/08 00:31:48;;;;;;;14.10;7.70;;;7.10;99.90;;;7.12;100.00;99985.72;5022663;27;124719;-74
2022/10/08 00:34:21;;;;;;;16.35;7.93;;;7.00;99.90;;;7.10;100.00;99982.47;5035611;27;130313;-73
2022/10/08 00:36:52;;;;;;;16.05;7.78;;;7.00;99.90;;;7.10;100.00;99985.16;5018796;27;129517;-73
2022/10/08 00:39:23;;;;;;;15.00;7.82;;;6.90;99.90;;;7.08;100.00;99979.25;5039500;27;128426;-72
2022/10/08 00:41:54;;;;;;;12.98;7.65;;;6.90;99.90;;;7.09;100.00;99980.88;5005597;27;125828;-73
2022/10/08 00:44:53;;;;;;;15.57;7.50;;;6.90;99.90;;;7.07;100.00;99972.22;5036670;27;130058;-73
2022/10/08 00:47:39;;;;;;;17.27;9.02;;;6.90;99.90;;;7.07;100.00;99972.22;5036961;27;129548;-75
2022/10/08 00:50:17;;;;;;;13.05;7.88;;;6.90;99.90;;;7.09;100.00;99974.63;5036827;27;125380;-73
2022/10/08 00:52:50;;;;;;;16.05;8.75;;;6.90;99.90;;;7.09;100.00;99963.84;5036771;27;125845;-73
2022/10/08 00:55:22;;;;;;;17.38;8.88;;;6.90;99.90;;;7.08;100.00;99971.16;5036666;27;129836;-73
2022/10/08 00:57:52;;;;;;;17.63;9.38;;;6.90;99.90;;;7.11;100.00;99964.41;5036760;27;130046;-73
2022/10/08 01:00:23;;;;;;;16.42;9.10;;;7.00;99.90;;;7.13;100.00;99954.91;5036758;27;125733;-73
2022/10/08 01:02:53;;;;;;;21.60;10.23;;;7.00;99.90;;;7.18;100.00;99957.63;5036629;27;125711;-73
2022/10/08 01:05:38;;;;;;;18.23;9.65;;;7.00;99.90;;;7.17;100.00;99950.59;5036514;27;129739;-73
2022/10/08 01:08:16;;;;;;;17.02;9.30;;;7.00;99.90;;;7.17;100.00;99945.19;5053708;27;130110;-74
2022/10/08 01:10:56;;;;;;;17.95;9.52;;;7.00;99.90;;;7.18;100.00;99936.03;5056888;27;125601;-74
2022/10/08 01:13:40;;;;;;;18.15;9.73;;;7.00;99.90;;;7.15;100.00;99941.97;5056642;27;125597;-72
2022/10/08 01:16:24;;;;;;;18.17;9.50;;;7.00;99.90;;;7.13;100.00;99938.72;5060257;27;104704;-74
2022/10/08 01:19:02;;;;;;;21.23;9.80;;;6.90;99.90;;;7.12;100.00;99937.13;5059133;27;129263;-74
2022/10/08 01:21:46;;;;;;;16.42;9.05;;;7.00;99.90;;;7.12;100.00;99930.91;5044956;27;125334;-74
2022/10/08 01:25:31;;;;;;;15.95;9.27;;;7.00;99.90;;;7.10;100.00;99923.09;5060591;27;125574;-73
2022/10/08 01:27:28;;;;;;;13.82;8.90;;;7.00;99.90;;;7.07;100.00;99925.53;5044430;27;129857;-73
2022/10/08 01:29:59;;;;;;;15.80;10.02;;;7.00;99.90;;;7.06;100.00;99927.44;5044564;27;128266;-72
2022/10/08 01:32:36;;;;;;;13.43;9.50;;;6.90;99.90;;;7.03;100.00;99928.00;5059793;27;126684;-71
2022/10/08 01:35:11;;;;;;;17.75;9.32;;;6.80;99.90;;;6.98;100.00;99919.91;5059949;27;126795;-71
2022/10/08 01:37:43;;;;;;;22.37;10.60;;;6.70;99.90;;;6.98;100.00;99909.09;5059982;27;129959;-71
2022/10/08 01:40:19;;;;;;;16.85;10.20;;;6.70;99.90;;;6.91;100.00;99914.03;5059914;27;129488;-71
2022/10/08 01:42:52;;;;;;;18.15;10.55;;;6.60;99.90;;;6.85;100.00;99910.53;5063259;27;125635;-71
2022/10/08 01:45:27;;;;;;;17.67;10.23;;;6.60;99.90;;;6.82;100.00;99911.91;5058728;27;125395;-72
2022/10/08 01:48:00;;;;;;;16.98;10.52;;;6.60;99.90;;;6.80;100.00;99914.06;5050437;27;129937;-72
2022/10/08 01:50:33;;;;;;;22.25;10.52;;;6.60;99.90;;;6.79;100.00;99912.44;5059784;27;129998;-73
2022/10/08 01:53:09;;;;;;;17.27;10.00;;;6.70;99.90;;;6.78;100.00;99908.13;5048305;27;126214;-72
2022/10/08 01:55:41;;;;;;;16.38;10.38;;;6.70;99.90;;;6.76;100.00;99915.69;5055007;27;125752;-73
2022/10/08 01:58:16;;;;;;;21.67;10.30;;;6.70;99.90;;;6.74;100.00;99909.75;5053224;27;130160;-71
2022/10/08 02:00:47;;;;;;;19.33;10.63;;;6.70;99.90;;;6.72;100.00;99914.63;5076079;27;129657;-71
2022/10/08 02:03:19;;;;;;;21.58;10.98;;;6.70;99.90;;;6.73;100.00;99913.56;5079943;27;126198;-72
2022/10/08 02:05:55;;;;;;;21.55;11.40;;;6.60;99.90;;;6.69;100.00;99909.78;5080686;27;125610;-73
2022/10/08 02:08:23;;;;;;;20.42;11.23;;;6.60;99.90;;;6.66;100.00;99918.44;5080047;27;131470;-71
2022/10/08 02:10:53;;;;;;;18.20;9.63;;;6.60;99.90;;;6.63;100.00;99908.19;5079894;27;130011;-72
2022/10/08 02:13:23;;;;;;;20.10;10.88;;;6.50;99.90;;;6.61;100.00;99899.56;5047390;27;125486;-71
2022/10/08 02:16:02;;;;;;;16.02;10.40;;;6.60;99.90;;;6.60;100.00;99908.72;5080017;27;125952;-72
2022/10/08 02:18:40;;;;;;;15.77;10.50;;;6.50;99.90;;;6.56;100.00;99892.31;5079458;27;129807;-72
2022/10/08 02:21:16;;;;;;;17.73;10.55;;;6.50;99.90;;;6.55;100.00;99890.69;5079583;27;130084;-72
2022/10/08 02:23:54;;;;;;;19.85;10.80;;;6.50;99.90;;;6.56;100.00;99891.47;5046951;27;126058;-71
2022/10/08 02:26:29;;;;;;;14.30;10.70;;;6.50;99.90;;;6.55;100.00;99897.97;5064606;27;126349;-71
2022/10/08 02:29:02;;;;;;;22.98;10.68;;;6.40;99.90;;;6.55;100.00;99895.28;5078121;27;130694;-72
2022/10/08 02:31:37;;;;;;;19.88;10.75;;;6.40;99.90;;;6.55;100.00;99892.59;5078037;27;129519;-71
2022/10/08 02:34:14;;;;;;;16.55;10.10;;;6.40;99.90;;;6.51;100.00;99895.00;5064793;27;125267;-71
2022/10/08 02:36:48;;;;;;;17.30;11.32;;;6.40;99.90;;;6.48;100.00;99893.69;5079790;27;126398;-72
2022/10/08 02:39:19;;;;;;;23.10;11.68;;;6.30;99.90;;;6.46;100.00;99887.72;5079491;27;129958;-72
2022/10/08 02:41:53;;;;;;;21.80;11.63;;;6.30;99.90;;;6.41;100.00;99874.28;5079715;27;130467;-72
2022/10/08 02:44:31;;;;;;;20.30;11.30;;;6.40;99.90;;;6.39;100.00;99881.84;5079469;27;126812;-73
2022/10/08 02:47:04;;;;;;;19.67;10.27;;;6.30;99.90;;;6.40;100.00;99899.59;5079338;27;125623;-74
2022/10/08 02:49:37;;;;;;;17.38;11.02;;;6.40;99.90;;;6.40;100.00;99888.81;5078922;27;130731;-74
2022/10/08 02:52:09;;;;;;;15.50;10.40;;;6.40;99.90;;;6.40;100.00;99883.44;5079356;27;129490;-73
2022/10/08 02:54:42;;;;;;;18.00;10.38;;;6.40;99.90;;;6.36;100.00;99882.38;5079319;27;125870;-73
2022/10/08 02:57:17;;;;;;;19.67;11.10;;;6.40;99.90;;;6.38;100.00;99874.03;5079265;27;126061;-72
2022/10/08 02:59:48;;;;;;;21.52;10.45;;;6.30;99.90;;;6.35;100.00;99880.75;5047032;27;130028;-72
2022/10/08 03:02:26;;;;;;;20.52;11.60;;;6.30;99.90;;;6.35;100.00;99869.97;5079422;27;129603;-73
2022/10/08 03:05:00;;;;;;;18.23;11.27;;;6.30;99.90;;;6.30;100.00;99872.69;5079787;27;126291;-73
2022/10/08 03:07:31;;;;;;;23.35;11.98;;;6.20;99.90;;;6.30;100.00;99862.72;5079382;27;125854;-71
2022/10/08 03:10:04;;;;;;;19.08;11.15;;;6.30;99.90;;;6.30;100.00;99861.91;5079071;27;129571;-71
2022/10/08 03:12:33;;;;;;;15.52;10.38;;;6.30;99.90;;;6.28;100.00;99864.09;5078988;27;129747;-71
2022/10/08 03:15:04;;;;;;;18.38;11.00;;;6.30;99.90;;;6.28;100.00;99854.09;5063480;27;125991;-72
2022/10/08 03:17:38;;;;;;;17.88;11.43;;;6.20;99.90;;;6.26;100.00;99856.28;5079036;27;126269;-72
2022/10/08 03:20:09;;;;;;;21.13;11.93;;;6.20;99.90;;;6.23;100.00;99853.31;5078688;27;130208;-71
2022/10/08 03:22:38;;;;;;;20.30;11.57;;;6.20;99.90;;;6.22;100.00;99849.81;5078502;27;129736;-71
2022/10/08 03:25:07;;;;;;;20.85;12.13;;;6.10;99.90;;;6.20;100.00;99848.44;5063663;27;124864;-72
2022/10/08 03:27:36;;;;;;;19.92;12.25;;;6.20;99.90;;;6.21;100.00;99850.06;5079038;27;125485;-72
2022/10/08 03:30:08;;;;;;;23.77;12.88;;;6.20;99.90;;;6.18;100.00;99845.22;5063338;27;129320;-71
2022/10/08 03:32:36;;;;;;;23.15;12.85;;;6.20;99.90;;;6.18;100.00;99837.16;5041015;27;128343;-71
2022/10/08 03:35:05;;;;;;;22.40;12.65;;;6.20;99.90;;;6.22;100.00;99847.09;5037807;27;125533;-73
2022/10/08 03:37:34;;;;;;;22.98;12.35;;;6.10;99.90;;;6.19;100.00;99838.78;5037667;27;127282;-73
2022/10/08 03:40:02;;;;;;;21.48;12.15;;;6.20;99.90;;;6.21;100.00;99836.59;5022265;27;128835;-72
2022/10/08 03:42:31;;;;;;;23.55;13.50;;;6.20;99.90;;;6.20;100.00;99835.81;5037103;27;130086;-72
2022/10/08 03:45:00;;;;;;;22.48;12.73;;;6.20;99.90;;;6.18;100.00;99826.38;5022735;27;125498;-74
2022/10/08 03:47:30;;;;;;;21.98;13.48;;;6.20;99.90;;;6.15;100.00;99837.69;5037632;27;125486;-73
2022/10/08 03:49:58;;;;;;;22.20;13.25;;;6.20;99.90;;;6.17;100.00;99835.53;5022876;27;129458;-72
2022/10/08 03:52:27;;;;;;;23.52;12.40;;;6.20;99.90;;;6.19;100.00;99828.00;5037535;27;129367;-75
2022/10/08 03:54:55;;;;;;;24.00;12.73;;;6.20;99.90;;;6.18;100.00;99826.38;5037655;27;125824;-73
2022/10/08 03:57:23;;;;;;;22.55;12.63;;;6.20;99.90;;;6.17;100.00;99827.44;5038021;27;125799;-74
2022/10/08 03:59:53;;;;;;;20.15;12.60;;;6.20;99.90;;;6.18;100.00;99826.38;5037126;27;129805;-74
2022/10/08 04:02:21;;;;;;;21.25;12.95;;;6.20;99.90;;;6.17;100.00;99813.97;5037278;27;129728;-74
2022/10/08 04:04:51;;;;;;;21.88;13.13;;;6.20;99.90;;;6.20;100.00;99824.19;5056913;27;127379;-74
2022/10/08 04:07:20;;;;;;;20.27;13.18;;;6.20;99.90;;;6.20;100.00;99808.03;5059762;27;124976;-73
2022/10/08 04:09:49;;;;;;;21.58;13.45;;;6.20;99.90;;;6.20;100.00;99813.41;5060945;27;129698;-72
2022/10/08 04:12:17;;;;;;;22.58;13.18;;;6.20;99.90;;;6.19;100.00;99807.22;5057723;27;129407;-72
2022/10/08 04:14:46;;;;;;;18.15;12.75;;;6.20;99.90;;;6.20;100.00;99802.63;5042335;27;125062;-73
2022/10/08 04:17:14;;;;;;;21.38;13.07;;;6.20;99.90;;;6.17;100.00;99808.56;5042184;27;124762;-71
2022/10/08 04:19:42;;;;;;;19.38;12.80;;;6.30;99.90;;;6.22;100.00;99797.81;5057264;27;130057;-74
2022/10/08 04:22:13;;;;;;;17.77;11.90;;;6.30;99.90;;;6.25;100.00;99805.34;5057485;27;129365;-73
2022/10/08 04:24:42;;;;;;;20.95;12.75;;;6.30;99.90;;;6.27;100.00;99803.16;5040023;27;127255;-73
2022/10/08 04:27:10;;;;;;;20.23;12.23;;;6.30;99.90;;;6.29;100.00;99801.00;5037148;27;125712;-71
2022/10/08 04:29:39;;;;;;;20.88;12.40;;;6.40;99.90;;;6.28;100.00;99802.09;5036474;27;130677;-72
2022/10/08 04:32:07;;;;;;;22.27;12.50;;;6.40;99.90;;;6.32;100.00;99792.34;5037092;27;130095;-72
2022/10/08 04:34:35;;;;;;;26.00;12.98;;;6.40;99.90;;;6.36;100.00;99790.72;5023728;27;125552;-73
2022/10/08 04:37:04;;;;;;;21.48;11.98;;;6.30;99.90;;;6.40;100.00;99790.97;5057341;27;125833;-70
2022/10/08 04:39:34;;;;;;;23.27;12.27;;;6.40;99.90;;;6.45;100.00;99786.38;5057047;27;130857;-72
2022/10/08 04:42:02;;;;;;;19.50;11.98;;;6.40;99.90;;;6.48;100.00;99788.53;5056925;27;129737;-73
2022/10/08 04:44:31;;;;;;;17.38;11.50;;;6.40;99.90;;;6.54;100.00;99785.78;5057198;27;125664;-72
2022/10/08 04:46:59;;;;;;;23.75;13.15;;;6.40;99.90;;;6.61;100.00;99786.31;5057539;27;125789;-72
2022/10/08 04:49:28;;;;;;;21.83;11.40;;;6.50;99.90;;;6.67;100.00;99790.59;5059152;27;129916;-72
2022/10/08 04:51:57;;;;;;;17.17;11.43;;;6.50;99.90;;;6.71;100.00;99786.22;5057322;27;130333;-73
2022/10/08 04:54:25;;;;;;;18.63;10.60;;;6.50;99.90;;;6.74;100.00;99780.28;5058627;27;128146;-72
2022/10/08 04:56:56;;;;;;;16.42;10.85;;;6.70;99.90;;;6.89;100.00;99775.88;5060727;27;126950;-71
2022/10/08 04:59:24;;;;;;;18.45;10.68;;;6.70;99.90;;;6.98;100.00;99774.19;5060468;27;129910;-74
2022/10/08 05:01:56;;;;;;;16.38;10.13;;;6.80;99.90;;;7.05;100.00;99785.47;5045410;27;128773;-72
2022/10/08 05:04:25;;;;;;;15.52;9.88;;;6.80;99.90;;;7.16;100.00;99788.91;5060652;27;126549;-71
2022/10/08 05:06:53;;;;;;;19.50;10.27;;;6.90;99.90;;;7.23;100.00;99785.88;5063474;27;128511;-72
2022/10/08 05:09:22;;;;;;;14.30;9.90;;;6.90;99.90;;;7.32;100.00;99786.91;5060231;27;130214;-71
2022/10/08 05:11:50;;;;;;;15.57;10.27;;;7.00;99.90;;;7.40;100.00;99780.88;5060731;27;129477;-71
2022/10/08 05:14:20;;;;;;;14.95;9.48;;;7.00;99.90;;;7.49;100.00;99781.88;5045407;27;125523;-71
2022/10/08 05:16:49;;;;;;;15.45;9.82;;;7.10;99.90;;;7.55;100.00;99783.44;5060403;27;125657;-72
2022/10/08 05:19:18;;;;;;;15.07;9.38;;;7.10;99.90;;;7.68;100.00;99786.56;5059881;27;129700;-71
2022/10/08 05:21:46;;;;;;;17.67;8.98;;;7.20;99.90;;;7.77;100.00;99779.47;5060118;27;129608;-71
2022/10/08 05:24:15;;;;;;;16.20;9.57;;;7.30;99.90;;;7.85;100.00;99786.97;5060211;27;125635;-71
2022/10/08 05:26:43;;;;;;;17.08;10.00;;;7.30;99.90;;;7.89;100.00;99777.19;5060328;27;125821;-72
2022/10/08 05:29:12;;;;;;;17.67;9.63;;;7.30;99.90;;;8.03;100.00;99787.31;5060012;27;130026;-71
2022/10/08 05:31:42;;;;;;;15.18;8.38;;;7.40;99.90;;;8.12;100.00;99784.78;5060308;27;129550;-70
2022/10/08 05:34:12;;;;;;;16.92;8.32;;;7.50;99.90;;;8.23;100.00;99786.28;5045602;27;124645;-70
2022/10/08 05:36:41;;;;;;;22.70;10.15;;;7.60;99.90;;;8.31;100.00;99787.53;5060505;27;125448;-72
2022/10/08 05:39:10;;;;;;;17.23;8.00;;;7.70;99.90;;;8.44;100.00;99778.75;5060152;27;131332;-71
2022/10/08 05:41:39;;;;;;;12.55;8.35;;;7.80;99.90;;;8.46;100.00;99779.25;5044837;27;129116;-71
2022/10/08 05:44:10;;;;;;;10.15;7.03;;;7.80;99.90;;;8.54;100.00;99788.63;5059526;27;127235;-70
2022/10/08 05:46:40;;;;;;;14.98;7.25;;;7.90;99.90;;;8.58;100.00;99786.94;5060222;27;126545;-70
2022/10/08 05:49:18;;;;;;;10.68;6.75;;;8.00;99.90;;;8.60;100.00;99782.03;5044697;27;129624;-71
2022/10/08 05:51:48;;;;;;;11.60;7.10;;;8.00;99.90;;;8.64;100.00;99785.78;5044855;27;128214;-71
2022/10/08 05:54:17;;;;;;;10.50;5.95;;;8.10;99.90;;;8.78;100.00;99785.88;5059770;27;125859;-71
2022/10/08 05:56:45;;;;;;;11.63;6.82;;;8.20;99.10;;;8.87;100.00;99789.53;5060227;27;125558;-72
2022/10/08 05:59:18;;;;;;;17.60;5.72;;;8.30;93.10;;;9.02;100.00;99788.47;5059855;27;130350;-71
2022/10/08 06:01:47;;;;;;;11.38;6.53;;;8.30;88.80;;;9.07;100.00;99776.78;5060204;27;129190;-73
2022/10/08 06:04:18;;;;;;;10.77;5.82;;;8.30;88.80;;;9.07;100.00;99782.19;5059725;27;125854;-73
2022/10/08 06:06:47;;;;;;;10.30;5.65;;;8.40;71.00;;;9.10;100.00;99777.00;5062736;27;125526;-70
2022/10/08 06:09:18;;;;;;;10.60;5.60;;;8.40;62.60;;;9.35;100.00;99783.91;5030467;27;131060;-72
2022/10/08 06:11:47;;;;;;;12.32;5.90;;;8.60;68.20;;;9.61;100.00;99783.47;5044619;27;128238;-70
2022/10/08 06:14:18;;;;;;;12.30;5.85;;;8.80;56.20;;;9.77;98.83;99791.31;5059575;27;126074;-71
2022/10/08 06:16:46;;;;;;;10.70;5.40;;;8.90;41.70;;;9.88;98.20;99793.56;5059323;27;124778;-73
2022/10/08 06:19:16;;;;;;;12.38;5.70;;;9.00;35.20;;;9.87;98.26;99797.38;5065094;27;129561;-72
2022/10/08 06:21:45;;;;;;;10.30;5.65;;;9.00;33.40;;;9.98;97.45;99783.63;5058713;27;129408;-70
2022/10/08 06:24:14;;;;;;;11.88;5.68;;;9.10;24.00;;;10.16;96.35;99790.03;5058231;27;126696;-70
2022/10/08 06:26:44;;;;;;;12.13;5.07;;;9.30;19.00;;;10.34;94.74;99791.88;5059502;27;125538;-71
2022/10/08 06:29:17;;;;;;;11.75;5.47;;;9.40;7.50;;;10.42;94.47;99793.09;5059131;27;130226;-70
2022/10/08 06:31:46;;;;;;;10.18;5.82;;;9.50;10.80;;;10.38;94.91;99781.25;5058798;27;129779;-70
2022/10/08 06:34:14;;;;;;;11.57;5.60;;;9.50;11.40;;;10.43;94.94;99787.34;5040430;27;126541;-71
2022/10/08 06:36:44;;;;;;;9.88;5.70;;;9.50;12.20;;;10.49;93.81;99776.41;5059010;27;126620;-71
2022/10/08 06:39:15;;;;;;;12.20;5.70;;;9.40;8.80;;;10.50;93.80;99778.81;5058887;27;129977;-72
2022/10/08 06:41:44;;;;;;;11.02;5.03;;;9.50;7.10;;;10.75;92.22;99782.06;5044255;27;128654;-70
2022/10/08 06:44:14;;;;;;;8.82;4.88;;;9.70;1.10;;;10.81;92.16;99772.69;5058772;27;125857;-70
2022/10/08 06:46:44;;;;;;;9.90;5.13;;;9.80;1.00;;;10.83;92.08;99780.53;5058960;27;125638;-69
2022/10/08 06:49:13;;;;;;;10.25;4.97;;;9.80;1.00;;;11.04;91.15;99759.97;5058910;27;129785;-71
2022/10/08 06:51:43;;;;;;;9.65;5.35;;;9.90;1.00;;;11.08;90.56;99760.97;5059126;27;129991;-69
2022/10/08 06:54:11;;;;;;;11.98;5.65;;;10.10;1.00;;;11.25;89.62;99762.19;5058875;27;125700;-70
2022/10/08 06:56:40;;;;;;;10.50;4.82;;;10.20;1.00;;;11.37;88.86;99767.84;5058863;27;125078;-69
2022/10/08 06:59:09;;;;;;;9.30;5.18;;;10.20;1.00;;;11.69;87.16;99763.25;5040528;27;130564;-70
2022/10/08 07:01:38;;;;;;;10.45;4.97;;;10.50;1.00;;;11.67;86.96;99771.72;5058698;27;129696;-72
2022/10/08 07:04:07;;;;;;;10.18;5.22;;;10.50;1.00;;;11.71;87.53;99766.44;5058572;27;125908;-71
2022/10/08 07:06:36;;;;;;;8.45;4.97;;;10.60;1.00;;;11.69;87.60;99752.38;5060927;27;125548;-71
2022/10/08 07:09:08;;;;;;;9.35;5.35;;;10.60;1.00;;;11.68;86.82;99756.19;5042037;27;129365;-70
2022/10/08 07:11:38;;;;;;;11.40;5.18;;;10.60;1.00;;;11.74;86.97;99748.72;5057157;27;129588;-75
2022/10/08 07:14:06;;;;;;;10.68;5.00;;;10.70;1.00;;;11.88;87.03;99742.03;5057237;27;125964;-71
2022/10/08 07:16:35;;;;;;;9.32;4.80;;;10.70;1.00;;;11.80;87.77;99753.69;5057040;27;125536;-73
2022/10/08 07:19:04;;;;;;;9.30;4.68;;;10.70;1.00;;;11.93;86.44;99740.34;5054611;27;130753;-71
2022/10/08 07:21:32;;;;;;;12.18;5.32;;;10.70;1.00;;;12.10;85.76;99729.50;5059934;27;131032;-70
2022/10/08 07:24:01;;;;;;;12.85;4.93;;;10.90;1.00;;;12.11;85.70;99742.00;5038996;27;126323;-70
2022/10/08 07:26:34;;;;;;;8.60;4.50;;;11.00;1.00;;;12.03;85.43;99731.91;5058199;27;127376;-71
2022/10/08 07:29:05;;;;;;;8.48;4.82;;;11.00;1.00;;;12.16;85.96;99730.19;5054722;27;130455;-74
2022/10/08 07:31:36;;;;;;;9.13;4.80;;;11.10;1.00;;;12.33;85.23;99734.88;5056701;27;130257;-71
2022/10/08 07:34:07;;;;;;;10.45;4.78;;;11.30;1.00;;;12.49;84.88;99741.44;5056923;27;125540;-73
2022/10/08 07:36:36;;;;;;;10.15;4.78;;;11.50;1.00;;;12.69;83.76;99728.34;5057185;27;125638;-74
2022/10/08 07:39:07;;;;;;;7.63;4.22;;;11.60;1.00;;;12.71;83.08;99726.09;5056632;27;130353;-71
2022/10/08 07:41:38;;;;;;;7.85;3.97;;;11.60;1.00;;;12.81;83.78;99730.41;5057165;27;129570;-72
2022/10/08 07:44:08;;;;;;;10.75;5.07;;;11.70;1.00;;;12.98;83.24;99729.59;5056786;27;125553;-72
2022/10/08 07:46:38;;;;;;;10.38;4.47;;;11.90;1.00;;;13.02;82.64;99711.50;5057236;27;126969;-72
2022/10/08 07:49:06;;;;;;;8.90;4.85;;;11.80;1.00;;;13.01;83.28;99707.16;5056968;27;130594;-71
2022/10/08 07:51:35;;;;;;;9.43;3.92;;;11.90;1.00;;;13.05;82.45;99714.38;5056991;27;129655;-71
2022/10/08 07:54:07;;;;;;;9.38;4.68;;;11.90;1.00;;;13.04;82.50;99706.50;5056799;27;126175;-72
2022/10/08 07:56:37;;;;;;;8.63;4.30;;;11.90;1.00;;;13.13;82.58;99705.41;5055812;27;125512;-72
2022/10/08 07:59:06;;;;;;;8.35;4.45;;;11.90;1.00;;;13.29;82.24;99708.41;5054248;27;130587;-70
2022/10/08 08:01:35;;;;;;;8.80;4.60;;;12.10;1.00;;;13.42;81.17;99706.63;5047277;27;129389;-72
2022/10/08 08:04:06;;;;;;;8.73;4.43;;;12.20;1.00;;;13.50;81.28;99705.00;5056928;27;125878;-73
2022/10/08 08:06:41;;;;;;;9.25;4.57;;;12.30;1.00;;;13.46;81.40;99690.41;5058025;27;125601;-70
2022/10/08 08:09:10;;;;;;;7.82;4.43;;;12.20;1.00;;;13.26;82.05;99692.69;5057362;27;130299;-73
2022/10/08 08:11:41;;;;;;;10.35;4.60;;;12.10;1.00;;;13.29;82.61;99694.78;5057493;27;129414;-71
2022/10/08 08:14:09;;;;;;;9.43;4.68;;;12.10;1.00;;;13.07;83.18;99692.25;5056840;27;126111;-71
2022/10/08 08:16:39;;;;;;;7.10;4.45;;;12.00;1.00;;;13.18;83.43;99685.31;5057504;27;127265;-73
2022/10/08 08:19:07;;;;;;;9.70;5.22;;;12.10;1.00;;;13.13;83.89;99686.31;5057224;27;129789;-71
2022/10/08 08:21:38;;;;;;;8.43;4.40;;;12.10;1.00;;;13.40;82.90;99675.34;5057223;27;129264;-76
2022/10/08 08:24:10;;;;;;;10.27;4.78;;;12.30;1.00;;;13.78;80.80;99674.59;5046676;27;125904;-73
2022/10/08 08:26:42;;;;;;;8.57;4.60;;;12.60;1.00;;;14.09;80.02;99674.25;5039680;27;125296;-75
2022/10/08 08:29:13;;;;;;;7.78;4.93;;;12.80;1.00;;;14.39;78.78;99672.25;5040952;27;129366;-76
2022/10/08 08:31:44;;;;;;;10.05;5.28;;;13.10;1.00;;;14.57;77.24;99672.13;5057833;27;130157;-73
2022/10/08 08:34:16;;;;;;;9.77;4.70;;;13.20;1.00;;;14.77;76.65;99658.81;5059723;27;125774;-72
2022/10/08 08:36:48;;;;;;;11.90;5.57;;;13.40;1.00;;;15.04;75.58;99663.69;5056937;27;124760;-72
2022/10/08 08:39:19;;;;;;;11.52;4.70;;;13.60;1.00;;;15.25;74.68;99668.28;5056661;27;130612;-71
2022/10/08 08:42:23;;;;;;;10.10;4.95;;;13.90;1.00;;;15.52;73.48;99663.31;5054839;27;129584;-74
2022/10/08 08:44:59;;;;;;;10.75;5.57;;;14.10;1.00;;;15.78;73.57;99658.34;5055354;27;125740;-72
2022/10/08 08:47:36;;;;;;;7.60;4.60;;;14.20;1.00;;;15.99;71.35;99662.91;5053794;27;125355;-71
2022/10/08 08:50:19;;;;;;;6.88;4.18;;;14.40;1.00;;;15.98;70.60;99655.81;5043440;27;129928;-71
2022/10/08 08:52:48;;;;;;;8.10;4.78;;;14.40;1.00;;;16.37;70.53;99648.00;5053744;27;129636;-71
2022/10/08 08:55:20;;;;;;;8.20;4.85;;;14.70;1.00;;;16.61;69.59;99649.88;5056382;27;125355;-72
2022/10/08 08:58:00;;;;;;;9.65;4.93;;;14.90;1.00;;;16.60;68.52;99652.94;5056635;27;126428;-71
2022/10/08 09:00:35;;;;;;;9.25;4.78;;;14.90;1.00;;;16.65;69.05;99644.47;5056612;27;130592;-72
2022/10/08 09:03:11;;;;;;;9.55;5.07;;;14.90;1.00;;;16.82;67.96;99652.38;5056750;27;129812;-72
2022/10/08 09:05:45;;;;;;;7.82;4.50;;;15.10;1.00;;;16.78;68.47;99648.78;5058107;27;126482;-72
2022/10/08 09:08:18;;;;;;;8.38;4.70;;;15.20;1.00;;;16.57;69.46;99653.66;5041549;27;125586;-73
2022/10/08 09:10:53;;;;;;;9.90;5.22;;;14.90;1.00;;;16.04;71.45;99640.75;5057079;27;129910;-72
2022/10/08 09:13:27;;;;;;;9.48;5.00;;;14.40;1.00;;;15.97;73.03;99643.28;5038505;27;130214;-74
2022/10/08 09:15:57;;;;;;;9.60;4.80;;;14.60;1.00;;;16.04;72.71;99627.06;5056881;27;127043;-71
2022/10/08 09:18:25;;;;;;;9.48;5.47;;;14.70;1.00;;;16.17;72.51;99628.66;5057273;27;126160;-72
2022/10/08 09:20:54;;;;;;;9.43;4.88;;;14.80;1.00;;;16.32;72.40;99642.75;5055076;27;131628;-74
2022/10/08 09:23:26;;;;;;;11.55;5.28;;;15.00;1.00;;;16.01;72.23;99622.28;5054977;27;130387;-74
2022/10/08 09:26:01;;;;;;;7.97;4.68;;;14.80;1.00;;;16.16;73.03;99624.31;5054826;27;125895;-73
2022/10/08 09:28:45;;;;;;;9.37;5.10;;;15.00;1.00;;;16.41;73.10;99620.69;5054663;27;125256;-72
2022/10/08 09:31:27;;;;;;;10.48;5.20;;;15.10;1.00;;;16.53;72.23;99618.72;5054128;27;129923;-74
2022/10/08 09:34:01;;;;;;;11.63;5.70;;;15.30;1.00;;;16.68;71.80;99619.13;5054377;27;130054;-72
2022/10/08 09:36:34;;;;;;;9.20;5.50;;;15.30;1.00;;;16.64;72.84;99618.22;5037760;27;125607;-71
2022/10/08 09:39:07;;;;;;;10.98;5.80;;;15.30;1.00;;;16.92;71.70;99618.22;5056343;27;125857;-71
2022/10/08 09:41:36;;;;;;;9.35;5.47;;;15.60;1.00;;;16.96;70.72;99615.59;5060182;27;129838;-71
2022/10/08 09:44:19;;;;;;;10.02;5.57;;;15.60;1.00;;;16.72;72.23;99606.31;5059919;27;130207;-72
2022/10/08 09:46:52;;;;;;;11.13;5.75;;;15.50;1.00;;;16.66;72.69;99596.75;5060076;27;126099;-72
2022/10/08 09:49:31;;;;;;;8.35;4.97;;;15.30;1.00;;;16.75;72.91;99593.84;5060312;27;125536;-74
2022/10/08 09:52:06;;;;;;;9.40;5.38;;;15.40;1.00;;;16.89;72.58;99589.56;5041479;27;130479;-73
2022/10/08 09:54:38;;;;;;;8.38;4.90;;;15.50;1.00;;;16.63;73.16;99586.50;5060003;27;130752;-73
2022/10/08 09:57:07;;;;;;;10.80;5.63;;;15.40;1.00;;;16.50;73.84;99583.81;5059533;27;126386;-71
2022/10/08 09:59:51;;;;;;;12.18;5.70;;;15.30;1.00;;;16.58;74.21;99575.78;5059634;27;126881;-73
2022/10/08 10:02:32;;;;;;;9.77;5.15;;;15.40;1.00;;;16.65;73.99;99578.72;5059758;27;130051;-72
2022/10/08 10:05:04;;;;;;;11.27;5.88;;;15.40;1.00;;;16.85;73.65;99583.16;5059814;27;129748;-72
2022/10/08 10:07:45;;;;;;;8.88;5.40;;;15.50;1.00;;;16.59;73.61;99569.16;5059745;27;125698;-72
2022/10/08 10:10:21;;;;;;;11.00;6.00;;;15.40;1.00;;;16.60;74.82;99565.28;5060095;27;125958;-71
2022/10/08 10:12:54;;;;;;;8.35;5.45;;;15.40;1.00;;;16.69;75.00;99568.66;5059663;27;129875;-72
2022/10/08 10:15:32;;;;;;;8.82;5.30;;;15.50;1.00;;;16.61;74.83;99561.38;5041583;27;129707;-71
2022/10/08 10:18:07;;;;;;;8.68;4.88;;;15.40;1.00;;;16.88;73.85;99559.78;5059977;27;126163;-71
2022/10/08 10:20:41;;;;;;;8.83;5.40;;;15.70;1.00;;;17.34;73.67;99553.84;5059707;27;125796;-71
2022/10/08 10:23:14;;;;;;;10.52;5.13;;;16.20;1.00;;;17.57;70.46;99552.03;5058825;27;130050;-73
2022/10/08 10:25:48;;;;;;;6.72;4.47;;;16.30;1.00;;;17.44;71.30;99547.81;5059218;27;129695;-72
2022/10/08 10:28:24;;;;;;;8.10;5.10;;;16.10;1.00;;;17.57;71.04;99545.75;5059369;27;125700;-72
2022/10/08 10:31:05;;;;;;;11.30;5.50;;;16.30;1.00;;;17.80;70.23;99540.38;5059398;27;125562;-71
2022/10/08 10:33:39;;;;;;;8.40;4.90;;;16.50;1.00;;;17.87;69.99;99537.00;5059102;27;130502;-72